Time;durP1;ratioP1;P1;durP2;ratioP2;P2;SDS_P1;SDS_P2;PMS_P1;PMS_P2;Temp;Humidity;BMP_temperature;BMP_pressure;BME280_temperature;BME280_humidity;BME280_pressure;Samples;Min_cycle;Max_cycle;Signal;HPM_P1;HPM_P2
2023/12/28 00:02:22;;;;;;;0.32;0.32;;;;;;;;;;5099483;28;20060;-78
2023/12/28 00:04:50;;;;;;;0.10;0.10;;;;;;;;;;5098173;28;20125;-78
2023/12/28 00:07:18;;;;;;;0.10;0.10;;;;;;;;;;5096628;28;20906;-78
2023/12/28 00:09:45;;;;;;;0.10;0.10;;;;;;;;;;5097050;28;20060;-78
2023/12/28 00:12:12;;;;;;;0.10;0.10;;;;;;;;;;5099280;28;20048;-78
2023/12/28 00:14:40;;;;;;;0.20;0.20;;;;;;;;;;5099417;28;20060;-78
2023/12/28 00:17:07;;;;;;;0.10;0.10;;;;;;;;;;5093974;28;20056;-78
2023/12/28 00:19:33;;;;;;;0.10;0.10;;;;;;;;;;5100194;27;20048;-78
2023/12/28 00:22:00;;;;;;;0.57;0.57;;;;;;;;;;5095746;28;20060;-79
2023/12/28 00:24:27;;;;;;;0.10;0.10;;;;;;;;;;5097753;28;20116;-78
2023/12/28 00:26:55;;;;;;;0.10;0.10;;;;;;;;;;5088935;28;20048;-78
2023/12/28 00:29:24;;;;;;;0.10;0.10;;;;;;;;;;5095235;27;20056;-78
2023/12/28 00:31:50;;;;;;;0.17;0.17;;;;;;;;;;5097308;28;20048;-78
2023/12/28 00:34:16;;;;;;;0.10;0.10;;;;;;;;;;5087588;28;20869;-78
2023/12/28 00:36:43;;;;;;;0.10;0.10;;;;;;;;;;5096779;28;20052;-78
2023/12/28 00:39:12;;;;;;;0.10;0.10;;;;;;;;;;5096555;28;20053;-78
2023/12/28 00:41:39;;;;;;;0.30;0.30;;;;;;;;;;5098605;28;20992;-78
2023/12/28 00:44:09;;;;;;;0.10;0.10;;;;;;;;;;5085440;28;20063;-78
2023/12/28 00:46:38;;;;;;;0.10;0.10;;;;;;;;;;5094901;28;20088;-78
2023/12/28 00:49:04;;;;;;;0.10;0.10;;;;;;;;;;5098491;28;20060;-78
2023/12/28 00:51:32;;;;;;;0.10;0.10;;;;;;;;;;5095159;28;20052;-79
2023/12/28 00:53:59;;;;;;;0.17;0.17;;;;;;;;;;5092641;28;20048;-78
2023/12/28 00:56:26;;;;;;;0.63;0.63;;;;;;;;;;5091424;27;20044;-78
2023/12/28 00:58:53;;;;;;;0.10;0.10;;;;;;;;;;5098241;28;20052;-78
2023/12/28 01:01:20;;;;;;;0.10;0.10;;;;;;;;;;5093628;28;20048;-78
2023/12/28 01:03:46;;;;;;;0.10;0.10;;;;;;;;;;5101359;28;20057;-78
2023/12/28 01:06:13;;;;;;;0.10;0.10;;;;;;;;;;5098407;28;20052;-78
2023/12/28 01:08:42;;;;;;;1.30;0.63;;;;;;;;;;5100183;28;20080;-78
2023/12/28 01:11:10;;;;;;;0.10;0.10;;;;;;;;;;5100504;28;20083;-78
2023/12/28 01:13:36;;;;;;;0.17;0.17;;;;;;;;;;5099707;28;20048;-79
2023/12/28 01:16:06;;;;;;;0.57;0.57;;;;;;;;;;5103035;28;20044;-79
2023/12/28 01:18:33;;;;;;;0.10;0.10;;;;;;;;;;5102079;28;20055;-79
2023/12/28 01:20:59;;;;;;;0.10;0.10;;;;;;;;;;5103038;28;20180;-79
2023/12/28 01:23:26;;;;;;;0.10;0.10;;;;;;;;;;5103999;28;20498;-79
2023/12/28 01:25:52;;;;;;;0.13;0.13;;;;;;;;;;5104414;28;20735;-79
2023/12/28 01:28:18;;;;;;;0.10;0.10;;;;;;;;;;5110280;28;20923;-79
2023/12/28 01:30:45;;;;;;;0.10;0.10;;;;;;;;;;5109637;28;20053;-79
2023/12/28 01:33:11;;;;;;;0.10;0.10;;;;;;;;;;5102698;28;20548;-79
2023/12/28 01:35:38;;;;;;;0.10;0.10;;;;;;;;;;5100385;28;20048;-78
2023/12/28 01:38:05;;;;;;;0.10;0.10;;;;;;;;;;5099924;28;20056;-78
2023/12/28 01:40:31;;;;;;;0.10;0.10;;;;;;;;;;5096416;28;20044;-78
2023/12/28 01:42:58;;;;;;;0.10;0.10;;;;;;;;;;5099893;28;20079;-78
2023/12/28 01:45:24;;;;;;;0.10;0.10;;;;;;;;;;5110618;27;20063;-78
2023/12/28 01:47:52;;;;;;;0.10;0.10;;;;;;;;;;5099330;28;20071;-78
2023/12/28 01:50:20;;;;;;;0.10;0.10;;;;;;;;;;5107110;27;20059;-78
2023/12/28 01:52:46;;;;;;;0.10;0.10;;;;;;;;;;5100088;28;20048;-78
2023/12/28 01:55:13;;;;;;;0.10;0.10;;;;;;;;;;5099901;28;20068;-78
2023/12/28 01:57:39;;;;;;;0.10;0.10;;;;;;;;;;5098844;28;20084;-79
2023/12/28 02:00:07;;;;;;;0.10;0.10;;;;;;;;;;5100306;28;20081;-79
2023/12/28 02:02:34;;;;;;;0.10;0.10;;;;;;;;;;5102584;28;20056;-78
2023/12/28 02:05:01;;;;;;;0.10;0.10;;;;;;;;;;5104933;28;20092;-79
2023/12/28 02:07:29;;;;;;;0.10;0.10;;;;;;;;;;5103383;28;20057;-79
2023/12/28 02:09:55;;;;;;;0.10;0.10;;;;;;;;;;5102806;28;20102;-80
2023/12/28 02:12:22;;;;;;;0.10;0.10;;;;;;;;;;5125849;27;20083;-78
2023/12/28 02:14:48;;;;;;;0.10;0.10;;;;;;;;;;5101162;28;20118;-78
2023/12/28 02:17:35;;;;;;;0.10;0.10;;;;;;;;;;5098533;28;20071;-79
2023/12/28 02:20:05;;;;;;;0.10;0.10;;;;;;;;;;5100807;28;20048;-79
2023/12/28 02:22:32;;;;;;;0.30;0.30;;;;;;;;;;5101256;28;20056;-79
2023/12/28 02:25:06;;;;;;;0.10;0.10;;;;;;;;;;5102220;28;20045;-79
2023/12/28 02:27:40;;;;;;;0.75;0.75;;;;;;;;;;5099864;28;20067;-79
2023/12/28 02:30:08;;;;;;;0.25;0.25;;;;;;;;;;5098929;28;20059;-80
2023/12/28 02:32:53;;;;;;;0.00;0.00;;;;;;;;;;5100568;28;20032;-79
2023/12/28 02:35:25;;;;;;;0.10;0.10;;;;;;;;;;5103487;28;20033;-79
2023/12/28 02:37:55;;;;;;;0.52;0.52;;;;;;;;;;5092810;28;20063;-79
2023/12/28 02:40:23;;;;;;;0.10;0.10;;;;;;;;;;5102669;28;20093;-79
2023/12/28 02:42:50;;;;;;;0.10;0.10;;;;;;;;;;5093155;28;20891;-80
2023/12/28 02:45:17;;;;;;;0.10;0.10;;;;;;;;;;5099996;28;20147;-80
2023/12/28 02:47:44;;;;;;;0.10;0.10;;;;;;;;;;5101720;28;20083;-79
2023/12/28 02:50:10;;;;;;;0.10;0.10;;;;;;;;;;5103100;28;20048;-79
2023/12/28 02:52:37;;;;;;;0.10;0.10;;;;;;;;;;5104037;28;20037;-79
2023/12/28 02:55:03;;;;;;;0.10;0.10;;;;;;;;;;5097891;28;20063;-79
2023/12/28 02:57:30;;;;;;;0.10;0.10;;;;;;;;;;5099107;28;20052;-79
2023/12/28 03:00:01;;;;;;;0.30;0.30;;;;;;;;;;5100340;28;20106;-79
2023/12/28 03:02:28;;;;;;;0.10;0.10;;;;;;;;;;5100738;28;20041;-78
2023/12/28 03:04:55;;;;;;;0.10;0.10;;;;;;;;;;5098035;28;21309;-79
2023/12/28 03:07:22;;;;;;;0.10;0.10;;;;;;;;;;5101359;28;20041;-79
2023/12/28 03:09:48;;;;;;;0.30;0.30;;;;;;;;;;5106873;28;20068;-78
2023/12/28 03:12:16;;;;;;;0.10;0.10;;;;;;;;;;5102170;28;20398;-78
2023/12/28 03:14:43;;;;;;;0.10;0.10;;;;;;;;;;5100991;28;20079;-79
2023/12/28 03:17:11;;;;;;;0.10;0.10;;;;;;;;;;5100659;28;20064;-79
2023/12/28 03:19:38;;;;;;;0.10;0.10;;;;;;;;;;5103431;28;20410;-79
2023/12/28 03:22:05;;;;;;;0.00;0.00;;;;;;;;;;5101299;28;20089;-79
2023/12/28 03:24:31;;;;;;;0.00;0.00;;;;;;;;;;5101942;28;20053;-80
2023/12/28 03:26:59;;;;;;;0.10;0.10;;;;;;;;;;5095866;28;20060;-79
2023/12/28 03:29:27;;;;;;;4.38;1.05;;;;;;;;;;5132486;27;20473;-80
2023/12/28 03:31:54;;;;;;;0.20;0.20;;;;;;;;;;5102263;28;20045;-79
2023/12/28 03:34:21;;;;;;;0.10;0.10;;;;;;;;;;5099133;28;20060;-79
2023/12/28 03:36:49;;;;;;;0.17;0.17;;;;;;;;;;5105410;27;20519;-79
2023/12/28 03:39:15;;;;;;;0.10;0.10;;;;;;;;;;5102804;28;20059;-79
2023/12/28 03:41:42;;;;;;;0.10;0.10;;;;;;;;;;5100542;28;20955;-79
2023/12/28 03:44:09;;;;;;;0.10;0.10;;;;;;;;;;5100259;28;20059;-79
2023/12/28 03:46:36;;;;;;;0.10;0.10;;;;;;;;;;5099559;28;20029;-79
2023/12/28 03:49:02;;;;;;;0.20;0.20;;;;;;;;;;5100830;28;20048;-79
2023/12/28 03:51:29;;;;;;;0.10;0.10;;;;;;;;;;5099703;28;20040;-79
2023/12/28 03:53:56;;;;;;;0.20;0.20;;;;;;;;;;5094624;28;20037;-79
2023/12/28 03:56:23;;;;;;;0.10;0.10;;;;;;;;;;5097768;28;20071;-79
2023/12/28 03:58:50;;;;;;;0.10;0.10;;;;;;;;;;5101724;28;20563;-79
2023/12/28 04:01:21;;;;;;;0.20;0.20;;;;;;;;;;5096866;28;20056;-79
2023/12/28 04:03:48;;;;;;;0.30;0.30;;;;;;;;;;5101152;28;20139;-80
2023/12/28 04:06:15;;;;;;;4.38;2.53;;;;;;;;;;5099457;28;20133;-79
2023/12/28 04:08:42;;;;;;;0.10;0.10;;;;;;;;;;5101131;28;21091;-79
2023/12/28 04:11:09;;;;;;;0.20;0.20;;;;;;;;;;5103488;28;20054;-79
2023/12/28 04:13:36;;;;;;;0.10;0.10;;;;;;;;;;5101420;28;20052;-79
2023/12/28 04:16:03;;;;;;;0.10;0.10;;;;;;;;;;5100950;28;20589;-79
2023/12/28 04:18:29;;;;;;;0.13;0.13;;;;;;;;;;5103783;28;20033;-79
2023/12/28 04:20:56;;;;;;;0.10;0.10;;;;;;;;;;5099750;27;20068;-79
2023/12/28 04:23:22;;;;;;;0.10;0.10;;;;;;;;;;5116721;28;20447;-80
2023/12/28 04:25:50;;;;;;;0.10;0.10;;;;;;;;;;5093766;28;20063;-79
2023/12/28 04:28:18;;;;;;;0.10;0.10;;;;;;;;;;5099130;28;20131;-79
2023/12/28 04:30:47;;;;;;;0.32;0.32;;;;;;;;;;5106154;28;20911;-80
2023/12/28 04:33:16;;;;;;;0.10;0.10;;;;;;;;;;5102218;28;20032;-80
2023/12/28 04:35:44;;;;;;;0.10;0.10;;;;;;;;;;5100232;28;20048;-78
2023/12/28 04:38:12;;;;;;;0.10;0.10;;;;;;;;;;5096267;28;20053;-78
2023/12/28 04:40:39;;;;;;;0.10;0.10;;;;;;;;;;5139151;22;20050;-79
2023/12/28 04:43:05;;;;;;;0.25;0.25;;;;;;;;;;5007996;28;20054;-79
2023/12/28 04:45:32;;;;;;;0.10;0.10;;;;;;;;;;5006143;28;20054;-80
2023/12/28 04:47:59;;;;;;;0.10;0.10;;;;;;;;;;5002732;28;20055;-81
2023/12/28 04:50:26;;;;;;;0.10;0.10;;;;;;;;;;5002366;28;20082;-79
2023/12/28 04:52:52;;;;;;;0.10;0.10;;;;;;;;;;5007029;28;20054;-79
2023/12/28 04:55:20;;;;;;;0.10;0.10;;;;;;;;;;4998091;28;20058;-82
2023/12/28 04:57:47;;;;;;;0.10;0.10;;;;;;;;;;5006597;28;20081;-82
2023/12/28 05:00:14;;;;;;;0.10;0.10;;;;;;;;;;4999543;28;20114;-79
2023/12/28 05:02:40;;;;;;;0.10;0.10;;;;;;;;;;4997219;28;20062;-79
2023/12/28 05:05:10;;;;;;;0.95;0.90;;;;;;;;;;5004780;28;20054;-81
2023/12/28 05:07:36;;;;;;;0.10;0.10;;;;;;;;;;5004484;28;20848;-80
2023/12/28 05:10:03;;;;;;;0.10;0.10;;;;;;;;;;5003493;28;20145;-80
2023/12/28 05:12:29;;;;;;;0.10;0.10;;;;;;;;;;5012263;28;20062;-79
2023/12/28 05:15:09;;;;;;;0.10;0.10;;;;;;;;;;5005016;28;20507;-79
2023/12/28 05:17:35;;;;;;;0.10;0.10;;;;;;;;;;5004458;28;20640;-78
2023/12/28 05:20:02;;;;;;;0.10;0.10;;;;;;;;;;5003351;28;20058;-78
2023/12/28 05:22:28;;;;;;;0.10;0.10;;;;;;;;;;4995323;28;20058;-80
2023/12/28 05:24:55;;;;;;;0.20;0.20;;;;;;;;;;4995308;28;20078;-78
2023/12/28 05:27:21;;;;;;;0.10;0.10;;;;;;;;;;5004020;28;20058;-79
2023/12/28 05:29:48;;;;;;;0.10;0.10;;;;;;;;;;5000959;28;20055;-78
2023/12/28 05:32:14;;;;;;;0.10;0.10;;;;;;;;;;4998559;28;20050;-78
2023/12/28 05:34:40;;;;;;;0.10;0.10;;;;;;;;;;4995824;28;20055;-78
2023/12/28 05:37:07;;;;;;;0.10;0.10;;;;;;;;;;5003036;28;20082;-78
2023/12/28 05:39:33;;;;;;;0.10;0.10;;;;;;;;;;5000000;28;20049;-80
2023/12/28 05:42:00;;;;;;;1.08;1.08;;;;;;;;;;4995874;28;20066;-79
2023/12/28 05:44:26;;;;;;;0.10;0.10;;;;;;;;;;4995859;28;20051;-79
2023/12/28 05:46:52;;;;;;;0.82;0.80;;;;;;;;;;4998820;28;20141;-78
2023/12/28 05:49:19;;;;;;;0.10;0.10;;;;;;;;;;5006992;28;20061;-78
2023/12/28 05:51:45;;;;;;;0.10;0.10;;;;;;;;;;5002932;28;20430;-78
2023/12/28 05:54:12;;;;;;;0.10;0.10;;;;;;;;;;5006423;28;20140;-78
2023/12/28 05:56:38;;;;;;;0.10;0.10;;;;;;;;;;5008394;28;20050;-80
2023/12/28 05:59:05;;;;;;;0.10;0.10;;;;;;;;;;5006217;28;20105;-79
2023/12/28 06:01:31;;;;;;;0.00;0.00;;;;;;;;;;5002131;28;20062;-78
2023/12/28 06:03:58;;;;;;;0.10;0.10;;;;;;;;;;5007259;28;20462;-78
2023/12/28 06:06:25;;;;;;;0.10;0.10;;;;;;;;;;5007818;28;20075;-78
2023/12/28 06:08:51;;;;;;;0.10;0.10;;;;;;;;;;5008251;28;20050;-78
2023/12/28 06:11:17;;;;;;;0.10;0.10;;;;;;;;;;5002622;28;20058;-79
2023/12/28 06:13:44;;;;;;;0.10;0.10;;;;;;;;;;4998963;28;20509;-79
2023/12/28 06:16:10;;;;;;;0.10;0.10;;;;;;;;;;4997087;28;20066;-78
2023/12/28 06:18:37;;;;;;;0.10;0.10;;;;;;;;;;5002510;28;20089;-78
2023/12/28 06:21:06;;;;;;;0.32;0.32;;;;;;;;;;5000937;28;20141;-78
2023/12/28 06:23:32;;;;;;;0.30;0.30;;;;;;;;;;5005177;28;20051;-80
2023/12/28 06:26:03;;;;;;;0.10;0.10;;;;;;;;;;5008539;28;20054;-79
2023/12/28 06:28:30;;;;;;;0.45;0.45;;;;;;;;;;4992330;28;20174;-78
2023/12/28 06:31:00;;;;;;;0.10;0.10;;;;;;;;;;4998659;28;20516;-78
2023/12/28 06:33:28;;;;;;;0.10;0.10;;;;;;;;;;4989126;28;20064;-80
2023/12/28 06:35:57;;;;;;;0.10;0.10;;;;;;;;;;5007431;28;20054;-79
2023/12/28 06:38:24;;;;;;;0.10;0.10;;;;;;;;;;5000162;28;20047;-78
2023/12/28 06:40:51;;;;;;;0.10;0.10;;;;;;;;;;5004668;28;20058;-78
2023/12/28 06:43:17;;;;;;;0.10;0.10;;;;;;;;;;5008028;28;20209;-80
2023/12/28 06:45:44;;;;;;;0.10;0.10;;;;;;;;;;5000664;28;20188;-78
2023/12/28 06:48:10;;;;;;;0.10;0.10;;;;;;;;;;4995075;28;20054;-78
2023/12/28 06:50:37;;;;;;;0.10;0.10;;;;;;;;;;4999709;28;20057;-78
2023/12/28 06:53:03;;;;;;;0.10;0.10;;;;;;;;;;5004917;28;20563;-78
2023/12/28 06:55:30;;;;;;;0.10;0.10;;;;;;;;;;4996344;28;20939;-78
2023/12/28 06:57:57;;;;;;;0.20;0.20;;;;;;;;;;4996729;28;20057;-78
2023/12/28 07:00:24;;;;;;;0.20;0.20;;;;;;;;;;5003058;28;20093;-78
2023/12/28 07:02:50;;;;;;;0.10;0.10;;;;;;;;;;5003185;28;20062;-78
2023/12/28 07:05:17;;;;;;;0.10;0.10;;;;;;;;;;5005577;28;20050;-80
2023/12/28 07:07:43;;;;;;;0.10;0.10;;;;;;;;;;4991471;28;20506;-78
2023/12/28 07:10:10;;;;;;;0.10;0.10;;;;;;;;;;5007851;28;20057;-78
2023/12/28 07:12:37;;;;;;;0.10;0.10;;;;;;;;;;5007377;28;20062;-78
2023/12/28 07:15:03;;;;;;;0.10;0.10;;;;;;;;;;4994349;28;20061;-78
2023/12/28 07:17:30;;;;;;;0.10;0.10;;;;;;;;;;5003773;28;20046;-78
2023/12/28 07:19:56;;;;;;;0.10;0.10;;;;;;;;;;4998644;28;20539;-78
2023/12/28 07:22:23;;;;;;;0.10;0.10;;;;;;;;;;5007237;28;20058;-77
2023/12/28 07:24:49;;;;;;;0.10;0.10;;;;;;;;;;5007960;28;20078;-77
2023/12/28 07:27:16;;;;;;;8.00;0.65;;;;;;;;;;4990676;28;20106;-77
2023/12/28 07:29:42;;;;;;;0.10;0.10;;;;;;;;;;5004753;28;20402;-78
2023/12/28 07:32:09;;;;;;;0.10;0.10;;;;;;;;;;4998433;28;20104;-78
2023/12/28 07:34:36;;;;;;;0.13;0.13;;;;;;;;;;4999577;28;20076;-77
2023/12/28 07:37:03;;;;;;;0.20;0.20;;;;;;;;;;5002789;28;20576;-78
2023/12/28 07:39:29;;;;;;;0.10;0.10;;;;;;;;;;4994827;28;20102;-78
2023/12/28 07:41:56;;;;;;;0.10;0.10;;;;;;;;;;5000570;28;20090;-78
2023/12/28 07:44:22;;;;;;;0.73;0.73;;;;;;;;;;4994341;28;20055;-78
2023/12/28 07:46:49;;;;;;;0.10;0.10;;;;;;;;;;5002980;28;20059;-77
2023/12/28 07:49:15;;;;;;;0.10;0.10;;;;;;;;;;5005670;28;20116;-77
2023/12/28 07:51:41;;;;;;;0.10;0.10;;;;;;;;;;5005307;28;20077;-78
2023/12/28 07:54:08;;;;;;;0.10;0.10;;;;;;;;;;5002494;28;20432;-77
2023/12/28 07:56:35;;;;;;;0.10;0.10;;;;;;;;;;5002060;28;20062;-77
2023/12/28 07:59:01;;;;;;;0.10;0.10;;;;;;;;;;4997713;28;20148;-77
2023/12/28 08:01:27;;;;;;;0.10;0.10;;;;;;;;;;4992426;28;20054;-77
2023/12/28 08:03:54;;;;;;;0.10;0.10;;;;;;;;;;4997132;28;20445;-78
2023/12/28 08:06:21;;;;;;;0.10;0.10;;;;;;;;;;4994558;28;20922;-78
2023/12/28 08:08:48;;;;;;;0.10;0.10;;;;;;;;;;4999102;28;20532;-82
2023/12/28 08:11:14;;;;;;;0.10;0.10;;;;;;;;;;5001822;28;20055;-78
2023/12/28 08:13:40;;;;;;;0.10;0.10;;;;;;;;;;4993588;28;20142;-80
2023/12/28 08:16:07;;;;;;;0.10;0.10;;;;;;;;;;4992676;28;20051;-81
2023/12/28 08:18:33;;;;;;;0.10;0.10;;;;;;;;;;5003245;28;20058;-79
2023/12/28 08:21:00;;;;;;;0.10;0.10;;;;;;;;;;5001217;28;20472;-79
2023/12/28 08:23:29;;;;;;;1.58;1.48;;;;;;;;;;4998219;28;20055;-79
2023/12/28 08:25:55;;;;;;;0.10;0.10;;;;;;;;;;4991935;28;20106;-81
2023/12/28 08:28:23;;;;;;;8.77;3.28;;;;;;;;;;4993320;28;20065;-79
2023/12/28 08:30:49;;;;;;;0.10;0.10;;;;;;;;;;4999416;28;20055;-79
2023/12/28 08:33:16;;;;;;;0.10;0.10;;;;;;;;;;5001496;28;20046;-79
2023/12/28 08:35:42;;;;;;;0.13;0.13;;;;;;;;;;4994953;28;20129;-81
2023/12/28 08:38:09;;;;;;;0.10;0.10;;;;;;;;;;4991378;28;20058;-79
2023/12/28 08:40:35;;;;;;;0.10;0.10;;;;;;;;;;5004372;28;20595;-79
2023/12/28 08:43:01;;;;;;;0.10;0.10;;;;;;;;;;5004141;28;20062;-79
2023/12/28 08:45:28;;;;;;;0.10;0.10;;;;;;;;;;5004057;28;20054;-79
2023/12/28 08:47:55;;;;;;;0.10;0.10;;;;;;;;;;4987946;28;20054;-80
2023/12/28 08:50:21;;;;;;;0.10;0.10;;;;;;;;;;4993805;28;20054;-79
2023/12/28 08:52:48;;;;;;;0.10;0.10;;;;;;;;;;5010480;28;20065;-82
2023/12/28 08:55:14;;;;;;;0.10;0.10;;;;;;;;;;4997176;28;20060;-78
2023/12/28 08:57:40;;;;;;;0.10;0.10;;;;;;;;;;4995115;28;20054;-79
2023/12/28 09:00:10;;;;;;;0.10;0.10;;;;;;;;;;4997533;28;20149;-79
2023/12/28 09:02:37;;;;;;;0.10;0.10;;;;;;;;;;4997013;28;20050;-78
2023/12/28 09:05:04;;;;;;;0.10;0.10;;;;;;;;;;5001620;28;20795;-78
2023/12/28 09:07:30;;;;;;;0.10;0.10;;;;;;;;;;4994653;28;20054;-79
2023/12/28 09:09:56;;;;;;;0.10;0.10;;;;;;;;;;4991864;28;20048;-77
2023/12/28 09:12:23;;;;;;;0.10;0.10;;;;;;;;;;4992892;28;20054;-78
2023/12/28 09:14:52;;;;;;;0.20;0.20;;;;;;;;;;4996038;28;20089;-78
2023/12/28 09:17:22;;;;;;;0.10;0.10;;;;;;;;;;5001210;28;20073;-81
2023/12/28 09:19:48;;;;;;;0.10;0.10;;;;;;;;;;5000509;28;20060;-80
2023/12/28 09:22:15;;;;;;;0.10;0.10;;;;;;;;;;5001001;28;20570;-78
2023/12/28 09:24:42;;;;;;;0.10;0.10;;;;;;;;;;5007798;28;20051;-78
2023/12/28 09:27:09;;;;;;;0.10;0.10;;;;;;;;;;4994014;28;20065;-79
2023/12/28 09:29:35;;;;;;;0.10;0.10;;;;;;;;;;5000963;28;20708;-79
2023/12/28 09:32:01;;;;;;;0.20;0.20;;;;;;;;;;4999528;28;20184;-81
2023/12/28 09:34:28;;;;;;;0.10;0.10;;;;;;;;;;5002368;28;20136;-81
2023/12/28 09:36:54;;;;;;;0.10;0.10;;;;;;;;;;4996591;28;20137;-78
2023/12/28 09:39:21;;;;;;;0.10;0.10;;;;;;;;;;4994073;28;20066;-79
2023/12/28 09:41:55;;;;;;;0.10;0.10;;;;;;;;;;4995103;28;20138;-79
2023/12/28 09:44:22;;;;;;;0.10;0.10;;;;;;;;;;5000915;28;20109;-80
2023/12/28 09:46:48;;;;;;;0.10;0.10;;;;;;;;;;5001795;28;20050;-83
2023/12/28 09:49:15;;;;;;;0.10;0.10;;;;;;;;;;5005506;28;20050;-79
2023/12/28 09:51:42;;;;;;;0.10;0.10;;;;;;;;;;4996670;28;20128;-80
2023/12/28 09:54:08;;;;;;;0.10;0.10;;;;;;;;;;5007239;28;20058;-82
2023/12/28 09:56:35;;;;;;;0.20;0.20;;;;;;;;;;5008560;28;20058;-83
2023/12/28 09:59:02;;;;;;;0.10;0.10;;;;;;;;;;5002673;28;20058;-80
2023/12/28 10:01:28;;;;;;;0.10;0.10;;;;;;;;;;5002075;28;20050;-82
2023/12/28 10:03:55;;;;;;;0.10;0.10;;;;;;;;;;5000304;28;20910;-83
2023/12/28 10:06:22;;;;;;;0.10;0.10;;;;;;;;;;5001711;28;20055;-80
2023/12/28 10:08:49;;;;;;;0.10;0.10;;;;;;;;;;5004284;28;20054;-80
2023/12/28 10:11:15;;;;;;;0.10;0.10;;;;;;;;;;5003990;28;20093;-79
2023/12/28 10:13:43;;;;;;;0.10;0.10;;;;;;;;;;5000164;28;20114;-82
2023/12/28 10:16:10;;;;;;;0.95;0.95;;;;;;;;;;4994982;28;20059;-79
2023/12/28 10:18:42;;;;;;;0.10;0.10;;;;;;;;;;4996778;28;20059;-80
2023/12/28 10:21:09;;;;;;;0.10;0.10;;;;;;;;;;4988371;28;20117;-82
2023/12/28 10:23:35;;;;;;;0.10;0.10;;;;;;;;;;4993221;28;20063;-79
2023/12/28 10:26:04;;;;;;;0.28;0.28;;;;;;;;;;4991834;28;20058;-78
2023/12/28 10:28:31;;;;;;;0.10;0.10;;;;;;;;;;4997807;28;20113;-79
2023/12/28 10:30:58;;;;;;;0.10;0.10;;;;;;;;;;5001235;28;20607;-80
2023/12/28 10:33:25;;;;;;;0.52;0.38;;;;;;;;;;4993785;28;20901;-80
2023/12/28 10:35:52;;;;;;;0.10;0.10;;;;;;;;;;4995023;28;20109;-79
2023/12/28 10:38:19;;;;;;;0.10;0.10;;;;;;;;;;4988883;28;20051;-81
2023/12/28 10:40:46;;;;;;;0.10;0.10;;;;;;;;;;5002629;28;20133;-82
2023/12/28 10:43:15;;;;;;;0.10;0.10;;;;;;;;;;4994555;28;20129;-79
2023/12/28 10:45:43;;;;;;;0.10;0.10;;;;;;;;;;5009583;28;20050;-81
2023/12/28 10:48:10;;;;;;;0.10;0.10;;;;;;;;;;4996902;28;20127;-80
2023/12/28 10:50:40;;;;;;;0.30;0.30;;;;;;;;;;5004207;28;20061;-79
2023/12/28 10:53:15;;;;;;;2.08;0.90;;;;;;;;;;4991687;28;20046;-80
2023/12/28 10:55:50;;;;;;;0.30;0.30;;;;;;;;;;4997900;28;20138;-79
2023/12/28 10:58:34;;;;;;;0.10;0.10;;;;;;;;;;5007114;28;20058;-80
2023/12/28 11:01:02;;;;;;;0.10;0.10;;;;;;;;;;4988967;28;20520;-80
2023/12/28 11:03:33;;;;;;;0.10;0.10;;;;;;;;;;5006179;28;20053;-80
2023/12/28 11:06:00;;;;;;;0.10;0.10;;;;;;;;;;4994431;28;20061;-82
2023/12/28 11:08:26;;;;;;;0.10;0.10;;;;;;;;;;4997305;28;20137;-80
2023/12/28 11:10:54;;;;;;;0.10;0.10;;;;;;;;;;5001876;28;20046;-80
2023/12/28 11:13:21;;;;;;;0.10;0.10;;;;;;;;;;4996173;28;20059;-80
2023/12/28 11:15:50;;;;;;;0.10;0.10;;;;;;;;;;5000192;28;20101;-81
2023/12/28 11:18:17;;;;;;;0.10;0.10;;;;;;;;;;4991784;28;20058;-80
2023/12/28 11:20:44;;;;;;;0.10;0.10;;;;;;;;;;4991732;28;20061;-82
2023/12/28 11:23:11;;;;;;;0.10;0.10;;;;;;;;;;4989360;28;20430;-80
2023/12/28 11:25:37;;;;;;;0.20;0.20;;;;;;;;;;4992707;28;20433;-78
2023/12/28 11:28:10;;;;;;;0.10;0.10;;;;;;;;;;4995539;28;20066;-80
2023/12/28 11:30:37;;;;;;;0.10;0.10;;;;;;;;;;4995893;28;20057;-79
2023/12/28 11:33:05;;;;;;;0.10;0.10;;;;;;;;;;5004841;28;20061;-83
2023/12/28 11:35:41;;;;;;;0.10;0.10;;;;;;;;;;4997492;28;20058;-79
2023/12/28 11:38:11;;;;;;;0.30;0.30;;;;;;;;;;4993964;28;20571;-79
2023/12/28 11:40:44;;;;;;;0.10;0.10;;;;;;;;;;4999691;28;20152;-78
2023/12/28 11:43:20;;;;;;;0.10;0.10;;;;;;;;;;4989214;28;20062;-79
2023/12/28 11:45:50;;;;;;;0.10;0.10;;;;;;;;;;4988990;28;20058;-78
2023/12/28 11:48:24;;;;;;;0.10;0.10;;;;;;;;;;4995592;28;20065;-78
2023/12/28 11:50:53;;;;;;;0.10;0.10;;;;;;;;;;4994751;28;22822;-78
2023/12/28 11:53:20;;;;;;;0.10;0.10;;;;;;;;;;5005218;28;20062;-81
2023/12/28 11:55:46;;;;;;;0.15;0.15;;;;;;;;;;4997879;28;20109;-79
2023/12/28 11:58:13;;;;;;;0.10;0.10;;;;;;;;;;5004427;28;20524;-78
2023/12/28 12:00:41;;;;;;;0.47;0.47;;;;;;;;;;4996922;28;20062;-79
2023/12/28 12:03:09;;;;;;;0.10;0.10;;;;;;;;;;5002122;28;20581;-78
2023/12/28 12:05:36;;;;;;;0.10;0.10;;;;;;;;;;4991839;28;20064;-80
2023/12/28 12:08:03;;;;;;;0.10;0.10;;;;;;;;;;4992414;28;20055;-79
2023/12/28 12:10:29;;;;;;;0.10;0.10;;;;;;;;;;4998204;28;21185;-79
2023/12/28 12:12:59;;;;;;;0.10;0.10;;;;;;;;;;4988631;28;20544;-81
2023/12/28 12:15:26;;;;;;;0.10;0.10;;;;;;;;;;4986840;28;20055;-78
2023/12/28 12:17:52;;;;;;;0.10;0.10;;;;;;;;;;4999895;28;20067;-78
2023/12/28 12:20:19;;;;;;;0.30;0.30;;;;;;;;;;5004689;28;20145;-79
2023/12/28 12:22:46;;;;;;;0.10;0.10;;;;;;;;;;4992791;28;20050;-81
2023/12/28 12:25:12;;;;;;;0.17;0.17;;;;;;;;;;5000116;28;20927;-78
2023/12/28 12:27:38;;;;;;;0.13;0.13;;;;;;;;;;4997901;28;20144;-79
2023/12/28 12:30:05;;;;;;;0.30;0.30;;;;;;;;;;4999154;28;20054;-80
2023/12/28 12:32:32;;;;;;;1.38;1.10;;;;;;;;;;4990656;28;20154;-78
2023/12/28 12:34:58;;;;;;;0.20;0.20;;;;;;;;;;5003287;28;20054;-80
2023/12/28 12:37:26;;;;;;;0.10;0.10;;;;;;;;;;5002975;28;20077;-79
2023/12/28 12:39:54;;;;;;;1.00;0.35;;;;;;;;;;5002213;28;20141;-80
2023/12/28 12:42:20;;;;;;;0.10;0.10;;;;;;;;;;5002637;28;20823;-79
2023/12/28 12:44:47;;;;;;;0.10;0.10;;;;;;;;;;5004307;28;20089;-82
2023/12/28 12:47:13;;;;;;;0.10;0.10;;;;;;;;;;4992178;28;20062;-79
2023/12/28 12:49:42;;;;;;;0.15;0.15;;;;;;;;;;4999565;28;20053;-78
2023/12/28 12:52:09;;;;;;;0.10;0.10;;;;;;;;;;5003280;28;20521;-79
2023/12/28 12:54:36;;;;;;;0.10;0.10;;;;;;;;;;4998267;28;20064;-78
2023/12/28 12:57:03;;;;;;;0.10;0.10;;;;;;;;;;4997497;28;20059;-79
2023/12/28 12:59:30;;;;;;;0.10;0.10;;;;;;;;;;5001258;28;20058;-78
2023/12/28 13:01:56;;;;;;;0.10;0.10;;;;;;;;;;5007984;28;20050;-78
2023/12/28 13:04:23;;;;;;;0.10;0.10;;;;;;;;;;5008339;28;20058;-79
2023/12/28 13:06:50;;;;;;;0.10;0.10;;;;;;;;;;4998811;28;20054;-78
2023/12/28 13:09:17;;;;;;;0.10;0.10;;;;;;;;;;4996977;28;20972;-79
2023/12/28 13:11:43;;;;;;;0.10;0.10;;;;;;;;;;5003677;28;20161;-78
2023/12/28 13:14:10;;;;;;;0.10;0.10;;;;;;;;;;5004559;28;20062;-78
2023/12/28 13:16:36;;;;;;;0.10;0.10;;;;;;;;;;5000812;28;20053;-78
2023/12/28 13:19:03;;;;;;;0.10;0.10;;;;;;;;;;4992396;28;20065;-80
2023/12/28 13:21:29;;;;;;;1.48;1.23;;;;;;;;;;4993896;28;20708;-79
2023/12/28 13:23:59;;;;;;;0.10;0.10;;;;;;;;;;4996171;28;20066;-81
2023/12/28 13:26:25;;;;;;;0.10;0.10;;;;;;;;;;5001310;28;20105;-80
2023/12/28 13:28:52;;;;;;;0.10;0.10;;;;;;;;;;4990810;28;20600;-79
2023/12/28 13:31:18;;;;;;;0.10;0.10;;;;;;;;;;4996959;28;20137;-79
2023/12/28 13:33:45;;;;;;;0.13;0.13;;;;;;;;;;4998096;28;20054;-79
2023/12/28 13:36:12;;;;;;;0.10;0.10;;;;;;;;;;4998297;28;20453;-79
2023/12/28 13:38:39;;;;;;;0.10;0.10;;;;;;;;;;5004356;28;20058;-78
2023/12/28 13:41:06;;;;;;;0.10;0.10;;;;;;;;;;4992126;28;20137;-78
2023/12/28 13:43:32;;;;;;;0.10;0.10;;;;;;;;;;5000860;28;20089;-81
2023/12/28 13:45:58;;;;;;;0.10;0.10;;;;;;;;;;4996478;28;20062;-80
2023/12/28 13:48:25;;;;;;;0.10;0.10;;;;;;;;;;5002848;28;20938;-78
2023/12/28 13:50:52;;;;;;;0.10;0.10;;;;;;;;;;4996290;28;20600;-78
2023/12/28 13:53:18;;;;;;;0.10;0.10;;;;;;;;;;4997808;28;20137;-79
2023/12/28 13:55:45;;;;;;;0.10;0.10;;;;;;;;;;4988637;28;20517;-79
2023/12/28 13:58:12;;;;;;;0.10;0.10;;;;;;;;;;4990472;28;20061;-78
2023/12/28 14:00:40;;;;;;;0.10;0.10;;;;;;;;;;4990358;28;20051;-82
2023/12/28 14:03:06;;;;;;;0.10;0.10;;;;;;;;;;4994693;28;20710;-79
2023/12/28 14:05:33;;;;;;;0.10;0.10;;;;;;;;;;4989111;28;20055;-79
2023/12/28 14:08:03;;;;;;;0.10;0.10;;;;;;;;;;4995268;28;20050;-80
2023/12/28 14:10:29;;;;;;;0.30;0.30;;;;;;;;;;4998959;28;20058;-79
2023/12/28 14:12:56;;;;;;;0.10;0.10;;;;;;;;;;5005489;28;20105;-82
2023/12/28 14:15:23;;;;;;;0.10;0.10;;;;;;;;;;5004115;28;20053;-80
2023/12/28 14:17:49;;;;;;;4.55;1.75;;;;;;;;;;5000426;28;20169;-82
2023/12/28 14:20:17;;;;;;;0.10;0.10;;;;;;;;;;5004826;28;20058;-79
2023/12/28 14:22:43;;;;;;;0.10;0.10;;;;;;;;;;4998447;28;20896;-79
2023/12/28 14:25:11;;;;;;;0.10;0.10;;;;;;;;;;4993394;28;20082;-79
2023/12/28 14:27:38;;;;;;;0.10;0.10;;;;;;;;;;4999530;28;20066;-79
2023/12/28 14:30:06;;;;;;;0.20;0.20;;;;;;;;;;4997630;28;20059;-81
2023/12/28 14:32:32;;;;;;;0.10;0.10;;;;;;;;;;4995858;28;20436;-79
2023/12/28 14:34:59;;;;;;;0.10;0.10;;;;;;;;;;4990725;28;20053;-81
2023/12/28 14:37:26;;;;;;;0.10;0.10;;;;;;;;;;4992246;28;20059;-79
2023/12/28 14:39:52;;;;;;;0.10;0.10;;;;;;;;;;4989400;28;20145;-79
2023/12/28 14:42:18;;;;;;;0.10;0.10;;;;;;;;;;5001073;28;20051;-79
2023/12/28 14:44:45;;;;;;;0.20;0.20;;;;;;;;;;4993978;28;20452;-79